Time;durP1;ratioP1;P1;durP2;ratioP2;P2;SDS_P1;SDS_P2;PMS_P1;PMS_P2;Temp;Humidity;BMP_temperature;BMP_pressure;BME280_temperature;BME280_humidity;BME280_pressure;Samples;Min_cycle;Max_cycle;Signal;HPM_P1;HPM_P2
2023/01/22 00:00:13;;;;;;;17.90;10.27;;;1.70;19.10;;;;;;4970399;28;20207;-76
2023/01/22 00:02:38;;;;;;;19.43;10.03;;;1.60;21.10;;;;;;4972990;28;20188;-74
2023/01/22 00:05:05;;;;;;;20.97;10.23;;;1.80;23.60;;;;;;4970050;28;20525;-74
2023/01/22 00:07:30;;;;;;;16.77;10.30;;;1.70;23.10;;;;;;4969835;28;20191;-75
2023/01/22 00:09:56;;;;;;;20.47;10.57;;;1.60;24.50;;;;;;4970332;28;20449;-75
2023/01/22 00:12:22;;;;;;;16.80;9.90;;;1.60;24.30;;;;;;4970372;28;20521;-76
2023/01/22 00:14:48;;;;;;;17.90;10.53;;;1.60;23.30;;;;;;4972273;28;20571;-75
2023/01/22 00:17:14;;;;;;;16.60;9.63;;;1.60;23.30;;;;;;4968333;28;20184;-75
2023/01/22 00:19:39;;;;;;;19.80;10.60;;;1.70;23.00;;;;;;4972455;28;20517;-75
2023/01/22 00:22:05;;;;;;;17.67;10.17;;;2.00;23.10;;;;;;4965349;28;20188;-75
2023/01/22 00:24:30;;;;;;;14.60;9.17;;;2.00;22.70;;;;;;4972513;28;20195;-76
2023/01/22 00:26:56;;;;;;;15.90;9.70;;;1.60;23.10;;;;;;4971693;28;20196;-75
2023/01/22 00:29:21;;;;;;;17.47;10.17;;;1.60;23.20;;;;;;4970641;28;20200;-75
2023/01/22 00:31:47;;;;;;;17.37;10.00;;;1.70;22.60;;;;;;4969680;28;20199;-76
2023/01/22 00:34:12;;;;;;;17.77;10.03;;;1.60;23.20;;;;;;4971967;28;20199;-75
2023/01/22 00:36:39;;;;;;;17.70;10.47;;;1.70;24.60;;;;;;4969438;28;20215;-75
2023/01/22 00:39:05;;;;;;;16.87;10.53;;;1.80;22.40;;;;;;4971764;28;20698;-75
2023/01/22 00:41:30;;;;;;;16.80;10.20;;;1.70;24.60;;;;;;4971189;28;20475;-75
2023/01/22 00:43:56;;;;;;;18.63;10.40;;;1.80;25.50;;;;;;4971138;28;20263;-74
2023/01/22 00:46:22;;;;;;;18.10;10.10;;;1.60;24.70;;;;;;4970092;28;20218;-76
2023/01/22 00:48:49;;;;;;;15.23;9.10;;;2.00;26.50;;;;;;4970313;28;20207;-76
2023/01/22 00:51:14;;;;;;;18.10;10.83;;;1.60;23.50;;;;;;4971519;28;20303;-75
2023/01/22 00:53:41;;;;;;;17.57;10.00;;;1.60;26.40;;;;;;4970034;28;20969;-76
2023/01/22 00:56:07;;;;;;;17.53;10.23;;;1.70;27.00;;;;;;4970609;28;20200;-76
2023/01/22 00:58:33;;;;;;;16.83;10.23;;;1.70;25.30;;;;;;4971075;28;20443;-75
2023/01/22 01:01:01;;;;;;;16.77;9.90;;;1.70;23.40;;;;;;4969081;28;20260;-76
2023/01/22 01:03:26;;;;;;;18.53;10.97;;;2.00;24.40;;;;;;4969642;28;20180;-76
2023/01/22 01:05:56;;;;;;;17.90;11.13;;;1.80;22.80;;;;;;4967671;28;20463;-75
2023/01/22 01:08:22;;;;;;;17.23;10.70;;;1.70;24.80;;;;;;4970314;28;20885;-76
2023/01/22 01:10:55;;;;;;;19.63;10.80;;;2.00;23.50;;;;;;4969737;28;20444;-77
2023/01/22 01:13:21;;;;;;;20.87;10.67;;;1.70;24.60;;;;;;4970328;28;20423;-76
2023/01/22 01:15:47;;;;;;;16.90;10.17;;;1.70;21.00;;;;;;4969758;28;20498;-76
2023/01/22 01:18:13;;;;;;;21.40;11.33;;;1.80;25.00;;;;;;4966641;28;20510;-75
2023/01/22 01:20:39;;;;;;;19.60;10.90;;;1.70;25.40;;;;;;4970394;28;20291;-77
2023/01/22 01:23:05;;;;;;;18.13;10.23;;;1.80;24.20;;;;;;4971274;28;20431;-75
2023/01/22 01:25:30;;;;;;;20.57;11.10;;;2.00;24.70;;;;;;4970891;28;20459;-76
2023/01/22 01:27:56;;;;;;;20.87;10.73;;;1.80;24.20;;;;;;4968784;28;20190;-76
2023/01/22 01:30:21;;;;;;;19.90;10.80;;;2.00;22.80;;;;;;4969083;28;20195;-75
2023/01/22 01:32:48;;;;;;;17.30;9.87;;;1.70;22.90;;;;;;4968096;28;20195;-75
2023/01/22 01:35:13;;;;;;;21.00;11.33;;;2.10;23.90;;;;;;4969282;28;20227;-77
2023/01/22 01:37:39;;;;;;;22.50;10.43;;;1.70;25.10;;;;;;4970107;28;20478;-75
2023/01/22 01:40:05;;;;;;;21.53;11.00;;;1.90;23.50;;;;;;4968605;28;20220;-75
2023/01/22 01:42:37;;;;;;;19.40;11.10;;;1.70;24.00;;;;;;4971075;28;20210;-75
2023/01/22 01:45:23;;;;;;;19.30;10.70;;;2.10;27.80;;;;;;4969585;28;20469;-75
2023/01/22 01:48:21;;;;;;;19.53;10.33;;;1.80;23.60;;;;;;4969740;28;20475;-76
2023/01/22 01:51:10;;;;;;;19.67;11.23;;;1.70;21.40;;;;;;4969939;28;20467;-75
2023/01/22 01:53:38;;;;;;;20.47;10.87;;;1.80;23.50;;;;;;4969857;28;20467;-76
2023/01/22 01:56:12;;;;;;;18.40;10.73;;;1.80;21.80;;;;;;4969407;28;20964;-75
2023/01/22 01:58:41;;;;;;;19.57;10.60;;;1.80;24.80;;;;;;4971114;28;20473;-76
2023/01/22 02:01:17;;;;;;;23.67;10.47;;;1.80;22.10;;;;;;4966985;28;20675;-75
2023/01/22 02:03:44;;;;;;;25.30;11.50;;;1.70;24.90;;;;;;4969764;28;20435;-76
2023/01/22 02:06:11;;;;;;;21.83;10.53;;;1.70;23.90;;;;;;4968070;28;20475;-75
2023/01/22 02:08:38;;;;;;;19.83;10.27;;;1.70;23.50;;;;;;4970175;28;20498;-76
2023/01/22 02:11:04;;;;;;;18.60;10.90;;;1.70;25.80;;;;;;4968743;28;20447;-76
2023/01/22 02:13:32;;;;;;;17.50;9.90;;;1.80;23.90;;;;;;4970831;28;20431;-76
2023/01/22 02:15:58;;;;;;;19.33;9.93;;;1.80;25.10;;;;;;4967911;28;20215;-75
2023/01/22 02:18:24;;;;;;;20.03;11.17;;;1.90;25.00;;;;;;4969466;28;20431;-76
2023/01/22 02:20:57;;;;;;;21.20;10.50;;;1.80;25.50;;;;;;4969515;28;20702;-75
2023/01/22 02:23:24;;;;;;;19.43;10.70;;;1.80;22.40;;;;;;4970464;28;20191;-75
2023/01/22 02:25:51;;;;;;;17.97;10.60;;;2.40;24.20;;;;;;4967885;28;20562;-76
2023/01/22 02:28:16;;;;;;;17.20;10.50;;;1.90;22.20;;;;;;4969140;28;20427;-76
2023/01/22 02:30:42;;;;;;;20.77;10.67;;;1.90;21.60;;;;;;4971663;28;20450;-76
2023/01/22 02:33:08;;;;;;;20.83;10.80;;;1.90;21.70;;;;;;4972364;28;20198;-76
2023/01/22 02:35:33;;;;;;;17.43;10.20;;;1.90;24.40;;;;;;4972430;28;20980;-75
2023/01/22 02:37:59;;;;;;;18.80;11.00;;;2.20;22.70;;;;;;4973976;28;20223;-76
2023/01/22 02:40:24;;;;;;;21.53;10.90;;;2.00;22.30;;;;;;4972498;28;20319;-77
2023/01/22 02:42:50;;;;;;;18.60;10.17;;;2.00;20.40;;;;;;4973448;28;20267;-75
2023/01/22 02:45:16;;;;;;;19.83;10.87;;;1.90;18.80;;;;;;4970171;28;20586;-75
2023/01/22 02:47:41;;;;;;;18.23;10.27;;;2.00;21.00;;;;;;4970982;28;20187;-76
2023/01/22 02:50:08;;;;;;;22.43;11.87;;;2.30;21.60;;;;;;4968290;28;20719;-76
2023/01/22 02:52:33;;;;;;;20.60;11.20;;;2.00;21.70;;;;;;4973153;28;20239;-76
2023/01/22 02:54:59;;;;;;;21.47;10.70;;;2.40;21.90;;;;;;4972537;28;20454;-73
2023/01/22 02:57:24;;;;;;;19.10;10.37;;;2.30;22.10;;;;;;4973889;28;20196;-73
2023/01/22 02:59:50;;;;;;;19.07;10.27;;;1.90;20.50;;;;;;4973543;28;20287;-73
2023/01/22 03:02:15;;;;;;;22.60;10.63;;;2.30;21.50;;;;;;4972603;28;20650;-74
2023/01/22 03:04:41;;;;;;;21.43;10.50;;;2.00;22.20;;;;;;4970733;28;20195;-72
2023/01/22 03:07:06;;;;;;;18.63;9.90;;;2.50;19.40;;;;;;4971666;28;20728;-73
2023/01/22 03:09:32;;;;;;;17.67;9.53;;;2.00;18.90;;;;;;4972992;28;20197;-74
2023/01/22 03:11:58;;;;;;;20.50;9.97;;;2.10;18.60;;;;;;4972724;28;20721;-73
2023/01/22 03:22:37;;;;;;;17.53;10.27;;;2.30;19.70;;;;;;4968196;28;21011;-73
2023/01/22 03:25:02;;;;;;;18.37;9.83;;;2.40;20.60;;;;;;4973443;28;20494;-73
2023/01/22 03:27:30;;;;;;;19.13;10.27;;;2.20;18.20;;;;;;4966426;28;20176;-73
2023/01/22 03:29:56;;;;;;;17.70;10.20;;;1.90;19.90;;;;;;4972622;28;20190;-73
2023/01/22 03:32:22;;;;;;;20.27;10.20;;;2.20;21.10;;;;;;4971874;28;20431;-73
2023/01/22 03:34:48;;;;;;;19.50;10.40;;;1.90;23.70;;;;;;4972397;28;21008;-73
2023/01/22 03:37:15;;;;;;;19.83;10.33;;;1.90;22.30;;;;;;4970671;28;20243;-73
2023/01/22 03:39:40;;;;;;;20.17;9.53;;;1.90;22.70;;;;;;4970865;28;20458;-73
2023/01/22 03:42:06;;;;;;;14.87;8.83;;;1.90;22.40;;;;;;4970492;28;20441;-73
2023/01/22 03:44:32;;;;;;;15.20;8.93;;;2.30;20.90;;;;;;4971886;28;20658;-73
2023/01/22 03:46:57;;;;;;;19.30;9.97;;;2.00;20.60;;;;;;4972178;28;20194;-73
2023/01/22 03:49:23;;;;;;;18.87;9.10;;;2.20;21.10;;;;;;4971605;28;20202;-73
2023/01/22 03:51:48;;;;;;;19.30;9.23;;;2.00;20.50;;;;;;4970736;28;20195;-72
2023/01/22 03:54:15;;;;;;;15.20;9.20;;;2.10;20.60;;;;;;4972919;28;20767;-73
2023/01/22 03:56:41;;;;;;;20.93;9.63;;;2.30;19.70;;;;;;4972103;28;20176;-74
2023/01/22 03:59:08;;;;;;;16.50;9.10;;;2.20;20.50;;;;;;4971083;28;20500;-73
2023/01/22 04:01:34;;;;;;;14.87;8.57;;;2.30;20.00;;;;;;4971756;28;20482;-74
2023/01/22 04:03:59;;;;;;;15.93;9.30;;;2.10;17.60;;;;;;4971762;28;20451;-74
2023/01/22 04:06:26;;;;;;;16.97;9.50;;;2.00;23.30;;;;;;4970652;28;20200;-75
2023/01/22 04:08:56;;;;;;;12.67;7.80;;;2.50;22.80;;;;;;4971382;28;20662;-74
2023/01/22 04:11:22;;;;;;;17.37;8.33;;;2.10;19.50;;;;;;4971494;28;20467;-75
2023/01/22 04:13:47;;;;;;;15.23;8.20;;;2.10;20.30;;;;;;4972483;28;20424;-75
2023/01/22 04:16:13;;;;;;;15.73;9.13;;;2.10;22.30;;;;;;4970648;28;20446;-74
2023/01/22 04:18:40;;;;;;;17.00;9.07;;;2.10;22.20;;;;;;4967748;28;20180;-74
2023/01/22 04:21:06;;;;;;;13.23;7.73;;;2.50;20.60;;;;;;4971338;28;20557;-73
2023/01/22 04:23:31;;;;;;;12.87;8.10;;;2.50;20.90;;;;;;4971482;28;20522;-74
2023/01/22 04:25:57;;;;;;;13.40;7.97;;;2.10;20.50;;;;;;4971302;28;20243;-74
2023/01/22 04:28:22;;;;;;;17.20;8.57;;;2.50;18.70;;;;;;4970770;28;20645;-74
2023/01/22 04:30:50;;;;;;;14.93;8.23;;;2.10;18.70;;;;;;4971258;28;20184;-75
2023/01/22 04:33:16;;;;;;;15.63;9.00;;;2.60;19.60;;;;;;4970984;28;20235;-74
2023/01/22 04:35:41;;;;;;;14.97;8.30;;;2.10;20.00;;;;;;4969788;28;20604;-74
2023/01/22 04:38:11;;;;;;;15.60;9.03;;;2.20;19.00;;;;;;4971732;28;20187;-75
2023/01/22 04:40:36;;;;;;;14.77;7.93;;;2.60;19.20;;;;;;4971244;28;20203;-74
2023/01/22 04:43:06;;;;;;;15.27;8.40;;;2.50;19.20;;;;;;4972450;28;20434;-74
2023/01/22 04:45:32;;;;;;;14.47;7.87;;;2.10;18.90;;;;;;4962913;28;20204;-76
2023/01/22 04:47:58;;;;;;;13.00;8.30;;;2.40;20.40;;;;;;4971358;28;20983;-74
2023/01/22 04:50:27;;;;;;;16.17;8.83;;;2.30;20.40;;;;;;4970676;28;20203;-74
2023/01/22 04:52:55;;;;;;;14.13;7.83;;;2.60;21.00;;;;;;4970027;28;20246;-75
2023/01/22 04:55:22;;;;;;;14.47;8.83;;;2.40;21.90;;;;;;4968924;28;20487;-74
2023/01/22 04:57:48;;;;;;;15.13;8.30;;;2.20;20.50;;;;;;4968120;28;20448;-76
2023/01/22 05:00:14;;;;;;;14.87;8.27;;;2.40;21.50;;;;;;4970625;28;20478;-74
2023/01/22 05:02:39;;;;;;;19.67;8.40;;;2.10;18.30;;;;;;4971821;28;20215;-75
2023/01/22 05:05:06;;;;;;;14.27;8.23;;;2.20;21.60;;;;;;4967900;28;20518;-72
2023/01/22 05:07:31;;;;;;;16.23;8.47;;;2.10;20.80;;;;;;4969256;28;20195;-75
2023/01/22 05:09:57;;;;;;;12.10;7.60;;;2.10;21.00;;;;;;4971505;28;20443;-74
2023/01/22 05:12:22;;;;;;;13.13;8.10;;;2.40;25.50;;;;;;4969047;28;20617;-74
2023/01/22 05:14:48;;;;;;;14.67;8.20;;;2.50;22.70;;;;;;4971693;28;20709;-75
2023/01/22 05:17:14;;;;;;;12.80;7.40;;;2.50;23.10;;;;;;4963669;28;20280;-74
2023/01/22 05:19:39;;;;;;;14.60;8.00;;;2.60;22.10;;;;;;4970423;28;20310;-74
2023/01/22 05:22:05;;;;;;;12.23;7.70;;;2.20;22.00;;;;;;4971284;28;20198;-73
2023/01/22 05:24:30;;;;;;;11.27;7.60;;;2.20;21.50;;;;;;4970795;28;20558;-75
2023/01/22 05:26:56;;;;;;;12.43;7.77;;;1.90;21.50;;;;;;4970882;28;20184;-75
2023/01/22 05:29:24;;;;;;;16.90;7.13;;;2.50;21.00;;;;;;4969597;28;20196;-75
2023/01/22 05:31:51;;;;;;;13.33;7.40;;;2.50;22.00;;;;;;4970262;28;20555;-75
2023/01/22 05:34:16;;;;;;;14.90;7.53;;;2.20;19.00;;;;;;4968810;28;20538;-75
2023/01/22 05:36:42;;;;;;;14.93;7.57;;;2.20;20.60;;;;;;4966822;28;20447;-75
2023/01/22 05:39:07;;;;;;;14.03;7.77;;;2.10;19.50;;;;;;4970782;28;20214;-75
2023/01/22 05:41:33;;;;;;;12.20;7.60;;;2.20;21.70;;;;;;4970451;28;20243;-75
2023/01/22 05:44:00;;;;;;;15.67;7.10;;;2.20;20.30;;;;;;4970048;28;20190;-75
2023/01/22 05:46:26;;;;;;;14.87;7.90;;;2.20;21.00;;;;;;4967195;28;20227;-75
2023/01/22 05:48:51;;;;;;;12.50;7.77;;;2.50;21.60;;;;;;4971025;28;20833;-76
2023/01/22 05:51:17;;;;;;;14.80;7.77;;;2.60;20.80;;;;;;4969885;28;20179;-75
2023/01/22 05:53:42;;;;;;;13.40;7.47;;;2.10;21.30;;;;;;4969307;28;20655;-75
2023/01/22 05:56:08;;;;;;;11.87;8.00;;;2.10;21.50;;;;;;4969328;28;20203;-75
2023/01/22 05:58:34;;;;;;;13.20;7.33;;;2.20;22.40;;;;;;4971144;28;20602;-75
2023/01/22 06:00:59;;;;;;;14.47;7.97;;;2.20;22.60;;;;;;4969132;28;20207;-75
2023/01/22 06:03:25;;;;;;;11.03;7.20;;;2.20;21.90;;;;;;4969918;28;20190;-75
2023/01/22 06:05:57;;;;;;;11.50;7.17;;;2.20;21.60;;;;;;4969274;28;20286;-76
2023/01/22 06:08:23;;;;;;;11.53;6.97;;;2.20;23.30;;;;;;4969231;28;20184;-75
2023/01/22 06:10:49;;;;;;;11.30;6.87;;;2.20;20.10;;;;;;4970714;28;20449;-75
2023/01/22 06:13:14;;;;;;;14.13;7.77;;;2.30;20.50;;;;;;4973437;28;20246;-75
2023/01/22 06:15:42;;;;;;;11.00;7.00;;;2.20;23.20;;;;;;4970241;28;20617;-74
2023/01/22 06:18:08;;;;;;;11.20;7.23;;;2.20;22.90;;;;;;4964841;28;20307;-75
2023/01/22 06:20:33;;;;;;;11.03;6.00;;;2.20;20.90;;;;;;4969113;28;20988;-75
2023/01/22 06:22:59;;;;;;;9.93;6.77;;;2.20;22.70;;;;;;4967742;28;20458;-75
2023/01/22 06:25:24;;;;;;;12.30;7.17;;;2.40;19.70;;;;;;4968337;28;20226;-74
2023/01/22 06:27:50;;;;;;;10.80;6.53;;;2.60;21.60;;;;;;4967194;28;20195;-75
2023/01/22 06:30:16;;;;;;;12.07;7.07;;;2.20;21.40;;;;;;4968381;28;20302;-75
2023/01/22 06:32:41;;;;;;;10.40;6.50;;;2.30;23.80;;;;;;4969221;28;20180;-75
2023/01/22 06:35:07;;;;;;;10.80;6.57;;;2.60;18.50;;;;;;4968636;28;20730;-74
2023/01/22 06:37:32;;;;;;;8.60;6.50;;;2.20;21.90;;;;;;4969669;28;20187;-75
2023/01/22 06:39:58;;;;;;;10.83;7.00;;;2.20;24.00;;;;;;4968278;28;20809;-75
2023/01/22 06:42:23;;;;;;;12.80;7.53;;;2.20;24.00;;;;;;4969176;28;20191;-74
2023/01/22 06:44:50;;;;;;;13.07;8.23;;;2.30;23.70;;;;;;4970217;28;20204;-75
2023/01/22 06:47:16;;;;;;;13.20;8.10;;;2.60;22.70;;;;;;4964545;28;20204;-74
2023/01/22 06:49:41;;;;;;;14.40;8.17;;;2.30;21.60;;;;;;4969524;28;20444;-76
2023/01/22 06:52:07;;;;;;;11.40;6.93;;;2.30;22.70;;;;;;4969200;28;20199;-75
2023/01/22 06:54:32;;;;;;;9.00;6.67;;;2.60;23.40;;;;;;4970507;28;20191;-75
2023/01/22 06:56:58;;;;;;;10.03;6.63;;;2.20;23.30;;;;;;4966210;28;20194;-75
2023/01/22 06:59:23;;;;;;;10.40;7.00;;;2.30;20.90;;;;;;4968205;28;20208;-76
2023/01/22 07:01:49;;;;;;;10.40;7.10;;;3.10;22.00;;;;;;4968908;28;20267;-75
2023/01/22 07:04:14;;;;;;;9.90;6.50;;;2.20;23.40;;;;;;4968892;28;20569;-75
2023/01/22 07:06:40;;;;;;;10.17;7.17;;;2.20;25.70;;;;;;4966787;28;20180;-74
2023/01/22 07:09:05;;;;;;;12.03;7.47;;;2.40;23.10;;;;;;4967682;28;20562;-74
2023/01/22 07:11:31;;;;;;;10.30;6.87;;;2.60;22.90;;;;;;4969903;28;20192;-73
2023/01/22 07:13:56;;;;;;;11.83;6.70;;;2.20;24.80;;;;;;4969874;28;20266;-75
2023/01/22 07:16:22;;;;;;;9.47;6.10;;;2.60;23.00;;;;;;4971011;28;20626;-75
2023/01/22 07:18:47;;;;;;;11.60;6.43;;;2.30;22.00;;;;;;4972131;28;20187;-75
2023/01/22 07:21:13;;;;;;;10.70;6.53;;;2.70;20.00;;;;;;4971813;28;20200;-74
2023/01/22 07:23:40;;;;;;;36.87;21.63;;;2.40;19.00;;;;;;4969975;28;20184;-74
2023/01/22 07:26:06;;;;;;;152.83;59.13;;;2.80;18.90;;;;;;4970210;28;20211;-73
2023/01/22 07:28:31;;;;;;;346.17;133.37;;;2.40;18.30;;;;;;4969631;28;20897;-76
2023/01/22 07:30:57;;;;;;;493.37;230.70;;;2.40;18.20;;;;;;4972731;28;20697;-74
2023/01/22 07:33:22;;;;;;;73.30;46.17;;;2.40;18.30;;;;;;4972808;28;20188;-75
2023/01/22 07:35:55;;;;;;;16.00;12.00;;;2.40;18.20;;;;;;4972836;28;20207;-74
2023/01/22 07:38:21;;;;;;;23.00;14.50;;;3.00;17.70;;;;;;4973007;28;20812;-75
2023/01/22 07:40:47;;;;;;;12.13;8.20;;;2.50;16.60;;;;;;4972948;28;20455;-75
2023/01/22 07:43:14;;;;;;;10.57;8.03;;;2.50;15.40;;;;;;4968386;28;20442;-75
2023/01/22 07:45:39;;;;;;;10.93;7.40;;;3.10;17.00;;;;;;4972794;28;20454;-75
2023/01/22 07:48:09;;;;;;;10.43;7.13;;;2.70;15.50;;;;;;4970345;28;20700;-75
2023/01/22 07:50:35;;;;;;;9.77;7.10;;;2.70;13.30;;;;;;4972110;28;20218;-74
2023/01/22 07:53:01;;;;;;;8.40;6.33;;;2.70;13.30;;;;;;4972416;28;20442;-75
2023/01/22 07:55:27;;;;;;;10.20;6.40;;;3.10;12.10;;;;;;4968045;28;21011;-75
2023/01/22 07:57:58;;;;;;;8.97;6.47;;;2.80;12.40;;;;;;4970808;28;20199;-75
2023/01/22 08:00:23;;;;;;;9.50;6.90;;;2.80;10.90;;;;;;4965635;28;20461;-75
2023/01/22 08:02:49;;;;;;;10.13;7.07;;;2.90;12.80;;;;;;4972974;28;20663;-75
2023/01/22 08:05:15;;;;;;;10.50;6.37;;;3.00;10.30;;;;;;4970065;28;20728;-75
2023/01/22 08:07:40;;;;;;;9.60;6.73;;;3.10;8.80;;;;;;4971319;28;20186;-77
2023/01/22 08:10:07;;;;;;;9.93;6.90;;;3.40;9.40;;;;;;4969791;28;20196;-75
2023/01/22 08:12:35;;;;;;;10.73;6.60;;;3.30;8.30;;;;;;4970728;28;20185;-75
2023/01/22 08:15:00;;;;;;;10.10;6.40;;;3.40;6.40;;;;;;4970805;28;20490;-75
2023/01/22 08:17:26;;;;;;;10.97;7.70;;;3.40;7.20;;;;;;4967239;28;20482;-75
2023/01/22 08:19:51;;;;;;;10.73;6.47;;;3.40;6.40;;;;;;4972244;28;20626;-75
2023/01/22 08:22:17;;;;;;;11.03;7.40;;;3.50;5.00;;;;;;4972395;28;20188;-76
2023/01/22 08:24:42;;;;;;;9.23;6.70;;;3.60;7.00;;;;;;4970548;28;20208;-75
2023/01/22 08:27:08;;;;;;;10.00;6.60;;;3.70;4.00;;;;;;4969958;28;20778;-75
2023/01/22 08:29:33;;;;;;;12.23;8.80;;;3.80;2.70;;;;;;4972539;28;20235;-76
2023/01/22 08:31:59;;;;;;;11.07;7.60;;;3.90;3.20;;;;;;4971191;28;20188;-75
2023/01/22 08:34:24;;;;;;;9.10;6.43;;;4.40;1.00;;;;;;4970484;28;20191;-73
2023/01/22 08:36:50;;;;;;;14.10;7.13;;;4.10;1.00;;;;;;4970061;28;20199;-75
2023/01/22 08:39:15;;;;;;;9.57;6.90;;;4.20;1.00;;;;;;4971875;28;20301;-75
2023/01/22 08:41:41;;;;;;;10.50;7.03;;;4.60;1.00;;;;;;4969369;28;20202;-75
2023/01/22 08:44:10;;;;;;;9.73;6.93;;;4.50;1.00;;;;;;4972040;28;20201;-74
2023/01/22 08:46:39;;;;;;;12.37;6.90;;;4.60;1.00;;;;;;4971093;28;20805;-75
2023/01/22 08:49:04;;;;;;;10.30;7.33;;;4.60;1.00;;;;;;4972227;28;21131;-75
2023/01/22 08:51:30;;;;;;;12.20;7.43;;;4.60;1.00;;;;;;4967442;28;20439;-75
2023/01/22 08:53:55;;;;;;;10.90;6.87;;;4.50;1.00;;;;;;4970650;28;20188;-75
2023/01/22 08:56:21;;;;;;;11.23;7.40;;;4.50;1.00;;;;;;4969669;28;20220;-76
2023/01/22 08:58:50;;;;;;;8.40;6.37;;;4.50;1.00;;;;;;4972205;28;20561;-75
2023/01/22 09:01:17;;;;;;;9.20;6.40;;;4.50;1.00;;;;;;4970362;28;20295;-74
2023/01/22 09:03:43;;;;;;;13.93;8.70;;;4.80;1.00;;;;;;4971566;28;20503;-74
2023/01/22 09:06:09;;;;;;;10.90;7.57;;;4.70;1.00;;;;;;4961488;28;20992;-73
2023/01/22 09:08:35;;;;;;;10.93;7.40;;;4.80;1.00;;;;;;4971594;28;20650;-75
2023/01/22 09:11:03;;;;;;;6.50;5.77;;;4.80;1.00;;;;;;4969536;28;20502;-74
2023/01/22 09:13:28;;;;;;;11.20;7.70;;;4.80;1.00;;;;;;4971419;28;20183;-74
2023/01/22 09:15:58;;;;;;;14.80;9.60;;;4.60;1.00;;;;;;4969220;28;20474;-75
2023/01/22 09:18:23;;;;;;;9.00;7.17;;;4.70;1.00;;;;;;4966331;28;20222;-75
2023/01/22 09:20:49;;;;;;;9.60;7.60;;;4.70;1.00;;;;;;4969182;28;20890;-75
2023/01/22 09:23:15;;;;;;;14.43;8.87;;;4.60;1.00;;;;;;4971328;28;20183;-74
2023/01/22 09:25:41;;;;;;;16.43;9.87;;;4.60;1.00;;;;;;4968078;28;20203;-74
2023/01/22 09:28:08;;;;;;;16.00;10.50;;;4.80;1.00;;;;;;4971172;28;20281;-72
2023/01/22 09:30:35;;;;;;;13.97;9.30;;;4.80;1.00;;;;;;4967508;28;20497;-74
2023/01/22 09:33:00;;;;;;;12.70;9.60;;;4.80;1.00;;;;;;4971632;28;20478;-74
2023/01/22 09:35:27;;;;;;;19.27;13.63;;;4.70;1.00;;;;;;4968479;28;20527;-74
2023/01/22 09:37:53;;;;;;;12.60;8.90;;;4.80;1.00;;;;;;4970671;28;20188;-74
2023/01/22 09:40:26;;;;;;;15.30;7.90;;;4.80;1.00;;;;;;4967630;28;20471;-74
2023/01/22 09:43:03;;;;;;;10.00;7.57;;;4.80;1.00;;;;;;4971319;28;20802;-74
2023/01/22 09:45:31;;;;;;;9.57;7.57;;;4.80;1.00;;;;;;4969820;28;20453;-74
2023/01/22 09:48:00;;;;;;;10.67;7.90;;;4.70;1.00;;;;;;4970906;28;20427;-74
2023/01/22 09:50:29;;;;;;;9.60;6.93;;;4.70;1.00;;;;;;4969088;28;20952;-73
2023/01/22 09:52:58;;;;;;;9.00;6.87;;;4.70;1.00;;;;;;4971054;28;20498;-74
2023/01/22 09:55:29;;;;;;;13.90;9.33;;;4.70;1.00;;;;;;4967051;28;20544;-74
2023/01/22 09:57:56;;;;;;;13.53;9.10;;;4.70;1.00;;;;;;4969788;28;20446;-74
2023/01/22 10:00:45;;;;;;;10.53;8.30;;;4.70;1.00;;;;;;4968380;28;20525;-74
2023/01/22 10:03:17;;;;;;;17.90;8.33;;;5.00;1.00;;;;;;4966584;28;20513;-74
2023/01/22 10:05:50;;;;;;;14.63;8.80;;;5.00;1.00;;;;;;4969473;28;20541;-74
2023/01/22 10:08:19;;;;;;;11.60;7.40;;;5.10;1.00;;;;;;4970554;28;20435;-74
2023/01/22 10:10:45;;;;;;;11.90;7.90;;;5.20;1.00;;;;;;4969653;28;20446;-74
2023/01/22 10:13:23;;;;;;;12.73;7.60;;;5.20;1.00;;;;;;4969064;28;20435;-73
2023/01/22 10:15:53;;;;;;;10.60;7.80;;;5.20;1.00;;;;;;4966821;28;20206;-74
2023/01/22 10:18:48;;;;;;;10.60;7.60;;;5.20;1.00;;;;;;4969227;28;20431;-74
2023/01/22 10:21:27;;;;;;;10.07;7.50;;;5.30;1.00;;;;;;4965104;28;20463;-73
2023/01/22 10:23:56;;;;;;;12.37;7.77;;;5.30;1.00;;;;;;4970048;28;20446;-74
2023/01/22 10:26:37;;;;;;;9.77;7.50;;;5.30;1.00;;;;;;4967930;28;20467;-74
2023/01/22 10:29:23;;;;;;;10.80;7.53;;;5.30;1.00;;;;;;4966758;28;20423;-74
2023/01/22 10:31:53;;;;;;;8.50;7.00;;;5.30;1.00;;;;;;4966918;28;20978;-74
2023/01/22 10:34:29;;;;;;;8.90;6.77;;;5.30;1.00;;;;;;4968793;28;20439;-74
2023/01/22 10:36:59;;;;;;;9.53;7.43;;;5.30;1.00;;;;;;4968197;28;20447;-74
2023/01/22 10:39:25;;;;;;;17.10;11.00;;;5.20;1.00;;;;;;4970292;28;20466;-74
2023/01/22 10:41:58;;;;;;;19.87;12.40;;;5.10;1.00;;;;;;4967596;28;20449;-74
2023/01/22 10:44:25;;;;;;;40.83;20.30;;;5.10;1.00;;;;;;4968042;28;20207;-74
2023/01/22 10:46:53;;;;;;;31.70;17.70;;;5.20;1.00;;;;;;4970291;28;20427;-74
2023/01/22 10:49:26;;;;;;;13.70;10.10;;;5.20;1.00;;;;;;4968625;28;20434;-73
2023/01/22 10:52:05;;;;;;;11.70;8.27;;;5.30;1.00;;;;;;4973182;28;20443;-74
2023/01/22 10:54:42;;;;;;;15.90;9.10;;;5.40;1.00;;;;;;4970408;28;20888;-73
2023/01/22 10:57:25;;;;;;;9.70;7.33;;;5.50;1.00;;;;;;4971074;28;20852;-72
2023/01/22 11:00:06;;;;;;;9.90;8.20;;;5.50;1.00;;;;;;4963119;28;20470;-74
2023/01/22 11:02:34;;;;;;;11.87;8.30;;;5.60;1.00;;;;;;4973733;28;20427;-73
2023/01/22 11:05:25;;;;;;;12.80;8.70;;;5.70;1.00;;;;;;4971248;28;21016;-72
2023/01/22 11:07:58;;;;;;;12.00;8.43;;;5.90;1.00;;;;;;4971221;28;20407;-74
2023/01/22 11:10:56;;;;;;;10.80;8.00;;;5.90;1.00;;;;;;4972443;28;20439;-74
2023/01/22 11:13:37;;;;;;;14.40;8.33;;;5.90;1.00;;;;;;4959178;28;20562;-74
2023/01/22 11:16:16;;;;;;;13.10;9.00;;;5.90;1.00;;;;;;4971809;28;20470;-73
2023/01/22 11:18:58;;;;;;;14.97;10.67;;;5.90;1.00;;;;;;4966281;28;20434;-74
2023/01/22 11:21:46;;;;;;;19.80;11.50;;;5.80;1.00;;;;;;4973274;28;21007;-73
2023/01/22 11:24:36;;;;;;;25.73;17.73;;;5.70;1.00;;;;;;4970338;28;20451;-73
2023/01/22 11:27:11;;;;;;;14.73;9.87;;;5.80;1.00;;;;;;4954128;28;20444;-73
2023/01/22 11:30:06;;;;;;;12.10;9.30;;;5.80;1.00;;;;;;4965383;28;20861;-74
2023/01/22 11:33:04;;;;;;;13.80;9.63;;;5.90;1.00;;;;;;4973499;28;20434;-74
2023/01/22 11:35:42;;;;;;;22.90;18.70;;;5.80;1.00;;;;;;4968164;28;20578;-74
2023/01/22 11:38:50;;;;;;;10.87;9.53;;;5.80;1.00;;;;;;4971466;28;20430;-72
2023/01/22 11:41:46;;;;;;;12.07;9.17;;;5.90;1.00;;;;;;4968766;28;20506;-75
2023/01/22 11:44:36;;;;;;;12.60;10.20;;;5.90;1.00;;;;;;4970305;28;20431;-74
2023/01/22 11:47:25;;;;;;;10.40;7.93;;;5.70;1.00;;;;;;4971837;28;20442;-75
2023/01/22 11:50:16;;;;;;;15.13;9.70;;;5.60;1.00;;;;;;4967907;28;20526;-74
2023/01/22 11:52:58;;;;;;;11.17;8.30;;;5.30;1.00;;;;;;4965191;28;20982;-74
2023/01/22 11:55:38;;;;;;;11.83;7.00;;;5.30;1.00;;;;;;4973801;28;20445;-74
2023/01/22 11:58:20;;;;;;;9.30;7.30;;;5.10;1.00;;;;;;4972001;28;20434;-74
2023/01/22 12:01:08;;;;;;;9.13;5.87;;;5.00;1.00;;;;;;4971646;28;20462;-75
2023/01/22 12:03:56;;;;;;;7.77;6.73;;;5.00;1.00;;;;;;4971165;28;20463;-74
2023/01/22 12:06:52;;;;;;;9.43;6.90;;;5.00;1.00;;;;;;4970442;28;20481;-74
2023/01/22 12:09:42;;;;;;;13.40;6.90;;;4.90;1.00;;;;;;4971045;28;21044;-75
2023/01/22 12:12:33;;;;;;;9.23;7.17;;;4.90;1.00;;;;;;4964639;28;20494;-73
2023/01/22 12:15:11;;;;;;;10.77;7.50;;;4.90;1.00;;;;;;4965598;28;20479;-74
2023/01/22 12:17:58;;;;;;;11.30;7.53;;;4.90;1.00;;;;;;4971701;28;20431;-75
2023/01/22 12:20:45;;;;;;;12.10;7.33;;;4.90;1.00;;;;;;4968618;28;21203;-75
2023/01/22 12:23:24;;;;;;;8.73;6.37;;;4.90;1.00;;;;;;4969227;28;20428;-74
2023/01/22 12:25:52;;;;;;;10.00;7.00;;;5.10;1.00;;;;;;4967417;28;20537;-73
2023/01/22 12:28:39;;;;;;;8.50;6.70;;;5.20;1.00;;;;;;4970807;28;20478;-75
2023/01/22 12:31:13;;;;;;;11.23;7.30;;;5.40;1.00;;;;;;4970026;28;20439;-75
2023/01/22 12:33:41;;;;;;;10.27;6.40;;;5.40;1.00;;;;;;4966427;28;20474;-74
2023/01/22 12:36:11;;;;;;;11.20;7.67;;;5.50;1.00;;;;;;4969313;28;20466;-75
2023/01/22 12:38:49;;;;;;;20.60;9.20;;;5.60;1.00;;;;;;4966648;28;20523;-75
2023/01/22 12:41:36;;;;;;;108.30;60.70;;;5.70;1.00;;;;;;4967341;28;20463;-73
2023/01/22 12:44:37;;;;;;;15.97;10.87;;;5.80;1.00;;;;;;4965284;28;20438;-75
2023/01/22 12:47:35;;;;;;;67.33;37.20;;;5.80;1.00;;;;;;4963192;28;20523;-75
2023/01/22 12:50:00;;;;;;;34.37;18.00;;;5.70;1.00;;;;;;4963988;28;20443;-74
2023/01/22 12:52:30;;;;;;;90.30;42.60;;;5.90;1.00;;;;;;4970913;28;20447;-75
2023/01/22 12:54:56;;;;;;;76.90;42.13;;;6.10;1.00;;;;;;4967547;28;20212;-75
2023/01/22 12:57:24;;;;;;;14.13;10.10;;;6.30;1.00;;;;;;4971402;28;20437;-75
2023/01/22 12:59:55;;;;;;;14.40;10.13;;;6.80;1.00;;;;;;4971375;28;20200;-75
2023/01/22 13:02:30;;;;;;;12.57;7.23;;;7.10;1.00;;;;;;4971182;28;20419;-75
2023/01/22 13:05:16;;;;;;;8.17;6.90;;;7.10;1.00;;;;;;4971703;28;20857;-75
2023/01/22 13:07:42;;;;;;;9.00;6.70;;;7.20;1.00;;;;;;4968481;28;20948;-75